Time;durP1;ratioP1;P1;durP2;ratioP2;P2;SDS_P1;SDS_P2;PMS_P1;PMS_P2;Temp;Humidity;BMP_temperature;BMP_pressure;BME280_temperature;BME280_humidity;BME280_pressure;Samples;Min_cycle;Max_cycle;Signal;HPM_P1;HPM_P2
2022/01/15 00:01:36;;;;;;;;;87.00;72.00;;;;;-147.17;100.00;50438.50;5030346;28;52977;-61
2022/01/15 00:04:02;;;;;;;;;88.33;72.33;;;;;-147.17;100.00;50422.75;5012611;28;51131;-61
2022/01/15 00:06:27;;;;;;;;;88.25;73.50;;;;;-147.17;100.00;50442.44;5016772;28;51513;-61
2022/01/15 00:08:52;;;;;;;;;91.67;76.67;;;;;-147.17;100.00;50420.78;5031059;28;51363;-61
2022/01/15 00:11:18;;;;;;;;;86.00;72.00;;;;;-147.17;100.00;50424.72;5027304;28;52137;-62
2022/01/15 00:13:51;;;;;;;;;89.50;74.25;;;;;-147.17;100.00;50420.78;5018157;28;51068;-61
2022/01/15 00:16:29;;;;;;;;;95.67;82.00;;;;;-147.17;100.00;50418.81;5023055;28;51112;-61
2022/01/15 00:19:17;;;;;;;;;94.33;82.00;;;;;-147.17;100.00;50414.88;5030823;28;51353;-61
2022/01/15 00:21:40;;;;;;;;;97.00;85.00;;;;;-147.17;100.00;50422.75;5026081;28;51768;-60
2022/01/15 00:24:06;;;;;;;;;93.67;79.67;;;;;-147.17;100.00;50397.16;5029082;28;51132;-61
2022/01/15 00:26:32;;;;;;;;;97.00;85.67;;;;;-147.17;100.00;50418.81;5025456;28;51174;-64
2022/01/15 00:28:57;;;;;;;;;73.33;55.67;;;;;-147.17;100.00;50418.81;5037647;28;51066;-64
2022/01/15 00:31:23;;;;;;;;;101.00;88.33;;;;;-147.17;100.00;50397.16;5025949;28;51706;-63
2022/01/15 00:33:48;;;;;;;;;92.00;76.33;;;;;-147.17;100.00;50412.91;5019911;28;51301;-63
2022/01/15 00:36:15;;;;;;;;;95.33;83.33;;;;;-147.17;100.00;50438.50;5028302;28;50951;-63
2022/01/15 00:38:41;;;;;;;;;89.75;76.75;;;;;-147.17;100.00;50403.06;5023447;28;51266;-63
2022/01/15 00:41:09;;;;;;;;;91.00;78.33;;;;;-147.17;100.00;50434.56;5025187;28;51998;-64
2022/01/15 00:43:34;;;;;;;;;94.00;82.67;;;;;-147.17;100.00;50428.66;5022543;28;51107;-65
2022/01/15 00:46:00;;;;;;;;;82.00;66.00;;;;;-147.17;100.00;50436.53;5020857;28;51015;-62
2022/01/15 00:48:26;;;;;;;;;91.50;77.00;;;;;-147.17;100.00;50444.41;5019835;28;51170;-61
2022/01/15 00:50:51;;;;;;;;;83.00;66.00;;;;;-147.17;100.00;50401.09;5024446;28;51254;-61
2022/01/15 00:53:17;;;;;;;;;83.75;65.00;;;;;-147.17;100.00;50430.63;5014561;28;51168;-62
2022/01/15 00:55:43;;;;;;;;;88.50;70.00;;;;;-147.17;100.00;50426.69;5019371;28;52026;-61
2022/01/15 00:58:08;;;;;;;;;85.25;67.00;;;;;-147.17;100.00;50426.69;5017338;28;52667;-62
2022/01/15 01:00:34;;;;;;;;;86.00;69.75;;;;;-147.17;100.00;50412.91;5022140;28;51730;-60
2022/01/15 01:02:59;;;;;;;;;92.33;80.00;;;;;-147.17;100.00;50395.19;5029580;28;51234;-62
2022/01/15 01:05:25;;;;;;;;;92.00;77.33;;;;;-147.17;100.00;50442.44;5015681;28;51195;-60
2022/01/15 01:07:50;;;;;;;;;88.00;72.67;;;;;-147.17;100.00;50430.63;5014937;28;50952;-58
2022/01/15 01:23:36;;;;;;;;;88.75;70.00;;;;;-147.17;100.00;50444.41;5025656;28;51254;-60
2022/01/15 01:28:55;;;;;;;;;85.75;66.00;;;;;-147.17;100.00;50464.09;5022943;28;51256;-61
2022/01/15 01:31:28;;;;;;;;;87.00;69.50;;;;;-147.17;100.00;50420.78;5021792;28;51634;-60
2022/01/15 01:34:03;;;;;;;;;94.33;77.00;;;;;-147.17;100.00;50450.31;5033312;28;51176;-61
2022/01/15 01:36:50;;;;;;;;;93.00;80.67;;;;;-147.17;100.00;50426.69;5027635;28;51183;-60
2022/01/15 01:39:19;;;;;;;;;95.33;80.00;;;;;-147.17;100.00;50450.31;5029768;28;51194;-61
2022/01/15 01:42:04;;;;;;;;;88.33;70.00;;;;;-147.17;100.00;50407.00;5018825;28;52145;-60
2022/01/15 01:44:30;;;;;;;;;95.67;81.33;;;;;-147.17;100.00;50420.78;5030206;28;51156;-61
2022/01/15 01:47:03;;;;;;;;;92.00;79.33;;;;;-147.17;100.00;50442.44;5030722;28;51151;-60
2022/01/15 01:49:28;;;;;;;;;92.67;78.00;;;;;-147.17;100.00;50460.16;5021402;28;51077;-61
2022/01/15 01:51:54;;;;;;;;;95.67;82.00;;;;;-147.17;100.00;50442.44;5015319;28;51108;-61
2022/01/15 01:54:19;;;;;;;;;96.00;82.67;;;;;-147.17;100.00;50414.88;5024555;28;51004;-60
2022/01/15 01:56:47;;;;;;;;;91.00;75.00;;;;;-147.17;100.00;50414.88;5030913;28;51287;-59
2022/01/15 01:59:14;;;;;;;;;88.25;70.00;;;;;-147.17;100.00;50442.44;5028388;28;51270;-60
2022/01/15 02:01:40;;;;;;;;;90.75;71.50;;;;;-147.17;100.00;50391.25;5018162;28;51161;-60
2022/01/15 02:04:05;;;;;;;;;89.75;71.75;;;;;-147.17;100.00;50428.66;5031741;28;51089;-59
2022/01/15 02:06:31;;;;;;;;;92.25;77.25;;;;;-147.17;100.00;50418.81;5021327;28;51261;-59
2022/01/15 02:08:58;;;;;;;;;88.75;71.25;;;;;-147.17;100.00;50414.88;5021049;28;51063;-61
2022/01/15 02:11:25;;;;;;;;;90.25;68.00;;;;;-147.17;100.00;50424.72;5033588;28;51664;-61
2022/01/15 02:13:51;;;;;;;;;87.25;70.00;;;;;-147.17;100.00;50407.00;5032530;28;51057;-60
2022/01/15 02:16:17;;;;;;;;;89.50;73.00;;;;;-147.17;100.00;50450.31;5030149;28;51835;-61
2022/01/15 02:18:43;;;;;;;;;86.25;65.50;;;;;-147.17;100.00;50414.88;5017283;28;51301;-61
2022/01/15 02:23:41;;;;;;;;;88.00;73.25;;;;;-147.17;100.00;50403.06;5020967;28;50497;-63
2022/01/15 02:26:09;;;;;;;;;91.50;72.75;;;;;-147.17;100.00;50456.22;5020930;28;51302;-60
2022/01/15 02:28:35;;;;;;;;;86.75;71.00;;;;;-147.17;100.00;50422.75;5029539;28;51414;-61
2022/01/15 02:31:03;;;;;;;;;91.50;71.50;;;;;-147.17;100.00;50397.16;5022904;28;52175;-61
2022/01/15 02:33:29;;;;;;;;;86.25;70.00;;;;;-147.17;100.00;50416.84;5020844;28;51273;-60
2022/01/15 02:35:56;;;;;;;;;88.25;71.50;;;;;-147.17;100.00;50418.81;5024004;28;51048;-61
2022/01/15 02:38:22;;;;;;;;;90.25;68.75;;;;;-147.17;100.00;50420.78;5032638;28;51074;-61
2022/01/15 02:40:47;;;;;;;;;90.50;73.75;;;;;-147.17;100.00;50438.50;5023464;28;51945;-61
2022/01/15 02:43:18;;;;;;;;;87.75;71.75;;;;;-147.17;100.00;50434.56;5016605;28;51124;-60
2022/01/15 02:45:46;;;;;;;;;80.50;65.00;;;;;-147.17;100.00;50422.75;5030635;28;51134;-61
2022/01/15 02:48:13;;;;;;;;;88.00;69.75;;;;;-147.17;100.00;50460.16;5014220;28;51415;-61
2022/01/15 02:50:39;;;;;;;;;88.75;74.50;;;;;-147.17;100.00;50399.13;5017475;28;52293;-61
2022/01/15 02:53:06;;;;;;;;;87.67;73.33;;;;;-147.17;100.00;50438.50;5018628;28;51249;-61
2022/01/15 02:55:31;;;;;;;;;91.50;71.50;;;;;-147.17;100.00;50407.00;5019128;28;51347;-63
2022/01/15 02:57:57;;;;;;;;;91.33;76.00;;;;;-147.17;100.00;50434.56;5025176;28;51085;-63
2022/01/15 03:00:23;;;;;;;;;87.00;69.50;;;;;-147.17;100.00;50408.97;5017920;28;52827;-64
2022/01/15 03:02:49;;;;;;;;;96.00;82.00;;;;;-147.17;100.00;50408.97;5023107;28;50927;-65
2022/01/15 03:05:14;;;;;;;;;91.00;77.33;;;;;-147.17;100.00;50403.06;5027294;28;51075;-66
2022/01/15 03:07:39;;;;;;;;;91.67;71.67;;;;;-147.17;100.00;50410.94;5025149;28;51016;-63
2022/01/15 03:10:05;;;;;;;;;90.25;72.25;;;;;-147.17;100.00;50416.84;5014559;28;52804;-63
2022/01/15 03:12:31;;;;;;;;;86.00;67.25;;;;;-147.17;100.00;50458.19;5028208;28;51046;-63
2022/01/15 03:15:01;;;;;;;;;88.75;71.75;;;;;-147.17;100.00;50416.84;5017892;28;50964;-63
2022/01/15 03:17:26;;;;;;;;;91.00;69.25;;;;;-147.17;100.00;50440.47;5023937;28;51233;-62
2022/01/15 03:19:52;;;;;;;;;89.25;72.75;;;;;-147.17;100.00;50428.66;5013441;28;51711;-62
2022/01/15 03:22:21;;;;;;;;;85.75;67.25;;;;;-147.17;100.00;50450.31;5026594;28;51187;-63
2022/01/15 03:24:46;;;;;;;;;89.00;72.00;;;;;-147.17;100.00;50446.38;5017993;28;51075;-60
2022/01/15 03:27:12;;;;;;;;;81.50;66.00;;;;;-147.17;100.00;50403.06;5031251;28;51302;-62
2022/01/15 03:29:37;;;;;;;;;83.75;65.50;;;;;-147.17;100.00;50450.31;5029045;28;51970;-61
2022/01/15 03:32:04;;;;;;;;;87.75;71.25;;;;;-147.17;100.00;50395.19;5023049;28;51156;-62
2022/01/15 03:34:29;;;;;;;;;88.75;74.50;;;;;-147.17;100.00;50383.38;5013492;28;51123;-62
2022/01/15 03:36:55;;;;;;;;;90.25;74.50;;;;;-147.17;100.00;50422.75;5018416;28;51149;-61
2022/01/15 03:39:23;;;;;;;;;91.50;75.50;;;;;-147.17;100.00;50434.56;5013341;28;52901;-61
2022/01/15 03:41:48;;;;;;;;;91.25;78.75;;;;;-147.17;100.00;50458.19;5026450;28;51150;-61
2022/01/15 03:44:14;;;;;;;;;94.75;79.00;;;;;-147.17;100.00;50432.59;5016525;28;51327;-61
2022/01/15 03:46:40;;;;;;;;;88.75;72.00;;;;;-147.17;100.00;50458.19;5025708;28;51238;-61
2022/01/15 03:49:05;;;;;;;;;92.25;75.75;;;;;-147.17;100.00;50426.69;5024140;28;52161;-61
2022/01/15 03:51:31;;;;;;;;;95.00;77.67;;;;;-147.17;100.00;50438.50;5016053;28;51074;-61
2022/01/15 03:53:56;;;;;;;;;93.75;74.75;;;;;-147.17;100.00;50440.47;5017253;28;51361;-61
2022/01/15 03:56:22;;;;;;;;;100.67;90.00;;;;;-147.17;100.00;50438.50;5023850;28;51176;-62
2022/01/15 03:58:47;;;;;;;;;97.33;85.67;;;;;-147.17;100.00;50420.78;5028987;28;51248;-62
2022/01/15 04:01:12;;;;;;;;;99.33;84.33;;;;;-147.17;100.00;50410.94;5024005;28;51082;-62
2022/01/15 04:03:38;;;;;;;;;92.67;78.33;;;;;-147.17;100.00;50420.78;5016949;28;51117;-62
2022/01/15 04:06:04;;;;;;;;;96.67;83.33;;;;;-147.17;100.00;50442.44;5013609;28;51184;-62
2022/01/15 04:08:29;;;;;;;;;93.33;82.00;;;;;-147.17;100.00;50416.84;5021014;28;51709;-62
2022/01/15 04:10:55;;;;;;;;;100.33;89.67;;;;;-147.17;100.00;50401.09;5021161;28;51149;-62
2022/01/15 04:13:20;;;;;;;;;105.33;93.33;;;;;-147.17;100.00;50420.78;5016883;28;51016;-62
2022/01/15 04:15:51;;;;;;;;;103.33;93.67;;;;;-147.17;100.00;50426.69;5019201;28;51189;-62
2022/01/15 04:18:17;;;;;;;;;100.00;87.67;;;;;-147.17;100.00;50403.06;5012746;28;51444;-61
2022/01/15 04:20:43;;;;;;;;;97.33;84.00;;;;;-147.17;100.00;50403.06;5018701;28;51019;-62
2022/01/15 04:23:08;;;;;;;;;105.67;94.67;;;;;-147.17;100.00;50422.75;5012527;28;51092;-62
2022/01/15 04:25:33;;;;;;;;;101.00;90.33;;;;;-147.17;100.00;50420.78;5011600;28;51362;-62
2022/01/15 04:28:02;;;;;;;;;102.00;94.67;;;;;-147.17;100.00;50412.91;5016736;28;52686;-62
2022/01/15 04:30:27;;;;;;;;;105.33;98.00;;;;;-147.17;100.00;50412.91;5017087;28;51213;-62
2022/01/15 04:32:53;;;;;;;;;105.33;96.00;;;;;-147.17;100.00;50414.88;5016039;28;50991;-62
2022/01/15 04:35:18;;;;;;;;;108.33;99.00;;;;;-147.17;100.00;50397.16;5014480;28;51187;-62
2022/01/15 04:37:47;;;;;;;;;99.67;90.33;;;;;-147.17;100.00;50393.22;5019000;28;52148;-62
2022/01/15 04:40:15;;;;;;;;;106.33;96.00;;;;;-147.17;100.00;50412.91;5030860;28;51120;-61
2022/01/15 04:42:40;;;;;;;;;102.33;94.00;;;;;-147.17;100.00;50420.78;5015034;28;51121;-62
2022/01/15 04:45:09;;;;;;;;;106.00;97.67;;;;;-147.17;100.00;50371.56;5017803;28;51292;-62
2022/01/15 04:47:36;;;;;;;;;114.00;103.33;;;;;-147.17;100.00;50401.09;5016959;28;52351;-62
2022/01/15 04:50:04;;;;;;;;;106.33;98.00;;;;;-147.17;100.00;50422.75;5021853;28;51070;-62
2022/01/15 04:52:30;;;;;;;;;116.33;107.00;;;;;-147.17;100.00;50418.81;5022503;28;51176;-62
2022/01/15 04:54:56;;;;;;;;;104.00;99.00;;;;;-147.17;100.00;50399.13;5010410;28;51916;-62
2022/01/15 04:57:22;;;;;;;;;119.00;106.00;;;;;-147.17;100.00;50399.13;5027476;28;52100;-62
2022/01/15 04:59:47;;;;;;;;;118.00;107.67;;;;;-147.17;100.00;50430.63;5031174;28;51126;-62
2022/01/15 05:02:12;;;;;;;;;111.00;103.33;;;;;-147.17;100.00;50397.16;5030079;28;51168;-62
2022/01/15 05:04:38;;;;;;;;;116.67;105.33;;;;;-147.17;100.00;50414.88;5024812;28;51255;-61
2022/01/15 05:07:03;;;;;;;;;122.67;110.00;;;;;-147.17;100.00;50438.50;5019281;28;51849;-62
2022/01/15 05:09:29;;;;;;;;;111.00;105.33;;;;;-147.17;100.00;50442.44;5015750;28;51245;-62
2022/01/15 05:12:02;;;;;;;;;113.00;106.00;;;;;-147.17;100.00;50428.66;5026947;28;51580;-62
2022/01/15 05:14:27;;;;;;;;;109.33;102.67;;;;;-147.17;100.00;50399.13;5024263;28;52071;-62
2022/01/15 05:16:53;;;;;;;;;120.00;97.33;;;;;-147.17;100.00;50387.31;5021865;28;51704;-61
2022/01/15 05:19:18;;;;;;;;;113.67;101.00;;;;;-147.17;100.00;50397.16;5030041;28;51095;-62
2022/01/15 05:21:43;;;;;;;;;114.00;109.33;;;;;-147.17;100.00;50407.00;5021954;28;51107;-62
2022/01/15 05:24:09;;;;;;;;;108.33;101.67;;;;;-147.17;100.00;50407.00;5019371;28;51150;-62
2022/01/15 05:26:34;;;;;;;;;115.00;107.00;;;;;-147.17;100.00;50408.97;5022405;28;51124;-62
2022/01/15 05:29:00;;;;;;;;;117.33;104.67;;;;;-147.17;100.00;50391.25;5021789;28;51173;-61
2022/01/15 05:31:26;;;;;;;;;124.00;108.67;;;;;-147.17;100.00;50428.66;5024500;28;51143;-62
2022/01/15 05:33:52;;;;;;;;;109.33;99.67;;;;;-147.17;100.00;50412.91;5014285;28;51398;-62
2022/01/15 05:36:17;;;;;;;;;112.67;100.33;;;;;-147.17;100.00;50403.06;5022959;28;52067;-62
2022/01/15 05:38:43;;;;;;;;;101.67;91.00;;;;;-147.17;100.00;50391.25;5032708;28;51078;-62
2022/01/15 05:41:08;;;;;;;;;107.00;97.33;;;;;-147.17;100.00;50416.84;5029358;28;51096;-62
2022/01/15 05:43:34;;;;;;;;;110.33;100.00;;;;;-147.17;100.00;50438.50;5015901;28;51075;-62
2022/01/15 05:45:59;;;;;;;;;108.00;101.33;;;;;-147.17;100.00;50397.16;5024489;28;51190;-62
2022/01/15 05:48:25;;;;;;;;;109.67;94.67;;;;;-147.17;100.00;50416.84;5022867;28;51125;-62
2022/01/15 05:50:50;;;;;;;;;103.00;89.00;;;;;-147.17;100.00;50410.94;5028662;28;51145;-66
2022/01/15 05:53:15;;;;;;;;;104.00;97.67;;;;;-147.17;100.00;50426.69;5033351;28;51498;-62
2022/01/15 05:55:41;;;;;;;;;115.33;103.67;;;;;-147.17;100.00;50414.88;5028653;28;51677;-62
2022/01/15 05:58:09;;;;;;;;;103.33;89.00;;;;;-147.17;100.00;50434.56;5014573;28;51066;-61
2022/01/15 06:00:35;;;;;;;;;104.00;97.33;;;;;-147.17;100.00;50395.19;5030715;28;51058;-61
2022/01/15 06:03:00;;;;;;;;;106.67;98.33;;;;;-147.17;100.00;50403.06;5033390;28;51273;-61
2022/01/15 06:05:26;;;;;;;;;106.67;98.33;;;;;-147.17;100.00;50379.44;5023737;28;51109;-61
2022/01/15 06:07:51;;;;;;;;;103.67;99.67;;;;;-147.17;100.00;50408.97;5014568;28;51106;-61
2022/01/15 06:10:16;;;;;;;;;110.00;98.33;;;;;-147.17;100.00;50430.63;5030391;28;54798;-61
2022/01/15 06:12:45;;;;;;;;;102.67;94.67;;;;;-147.17;100.00;50414.88;5021631;28;51384;-62
2022/01/15 06:15:15;;;;;;;;;100.67;92.67;;;;;-147.17;100.00;50383.38;5020174;28;52944;-61
2022/01/15 06:17:41;;;;;;;;;112.33;101.33;;;;;-147.17;100.00;50387.31;5022820;28;50892;-61
2022/01/15 06:20:09;;;;;;;;;114.33;107.00;;;;;-147.17;100.00;50410.94;5015335;28;50892;-62
2022/01/15 06:22:34;;;;;;;;;116.33;101.33;;;;;-147.17;100.00;50414.88;5025920;28;51374;-62
2022/01/15 06:25:02;;;;;;;;;113.00;105.33;;;;;-147.17;100.00;50424.72;5026998;28;51973;-61
2022/01/15 06:27:28;;;;;;;;;119.67;109.00;;;;;-147.17;100.00;50395.19;5025767;28;51067;-61
2022/01/15 06:29:56;;;;;;;;;125.67;109.67;;;;;-147.17;100.00;50412.91;5025117;28;51005;-62
2022/01/15 06:32:21;;;;;;;;;118.00;107.00;;;;;-147.17;100.00;50416.84;5022644;28;50944;-61
2022/01/15 06:34:47;;;;;;;;;121.67;110.00;;;;;-147.17;100.00;50422.75;5018193;28;51959;-61
2022/01/15 06:37:12;;;;;;;;;122.67;113.67;;;;;-147.17;100.00;50408.97;5012652;28;51019;-61
2022/01/15 06:39:38;;;;;;;;;131.50;119.25;;;;;-147.17;100.00;50418.81;5027059;28;51121;-61
2022/01/15 06:42:03;;;;;;;;;115.33;107.67;;;;;-147.17;100.00;50405.03;5014547;28;51249;-61
2022/01/15 06:44:28;;;;;;;;;112.67;105.00;;;;;-147.17;100.00;50428.66;5014281;28;51426;-61
2022/01/15 06:46:54;;;;;;;;;112.67;102.00;;;;;-147.17;100.00;50418.81;5016907;28;51012;-62
2022/01/15 06:49:20;;;;;;;;;119.67;112.67;;;;;-147.17;100.00;50399.13;5018351;28;50949;-61
2022/01/15 06:51:46;;;;;;;;;117.33;104.67;;;;;-147.17;100.00;50422.75;5023777;28;51371;-61
2022/01/15 06:54:11;;;;;;;;;110.00;101.33;;;;;-147.17;100.00;50422.75;5017874;28;51839;-64
2022/01/15 06:56:36;;;;;;;;;121.67;111.33;;;;;-147.17;100.00;50424.72;5033636;28;51183;-61
2022/01/15 06:59:02;;;;;;;;;129.00;106.33;;;;;-147.17;100.00;50430.63;5035769;28;51052;-62
2022/01/15 07:01:27;;;;;;;;;119.00;114.00;;;;;-147.17;100.00;50407.00;5032327;28;51040;-62
2022/01/15 07:03:53;;;;;;;;;110.33;101.33;;;;;-147.17;100.00;50422.75;5013373;28;51937;-60
2022/01/15 07:06:18;;;;;;;;;107.33;102.00;;;;;-147.17;100.00;50403.06;5024734;28;51156;-60
2022/01/15 07:08:43;;;;;;;;;125.00;111.33;;;;;-147.17;100.00;50438.50;5028130;28;51635;-62
2022/01/15 07:11:09;;;;;;;;;126.00;110.67;;;;;-147.17;100.00;50403.06;5013764;28;50965;-62
2022/01/15 07:13:34;;;;;;;;;102.67;94.33;;;;;-147.17;100.00;50434.56;5031892;28;51832;-62
2022/01/15 07:16:01;;;;;;;;;112.67;106.33;;;;;-147.17;100.00;50428.66;5032806;28;50976;-62
2022/01/15 07:18:26;;;;;;;;;109.33;100.00;;;;;-147.17;100.00;50434.56;5032557;28;50919;-62
2022/01/15 07:20:51;;;;;;;;;106.67;99.00;;;;;-147.17;100.00;50418.81;5026351;28;51112;-61
2022/01/15 07:23:17;;;;;;;;;101.33;96.33;;;;;-147.17;100.00;50420.78;5013464;28;51806;-60
2022/01/15 07:25:43;;;;;;;;;113.33;97.67;;;;;-147.17;100.00;50407.00;5010342;28;51021;-62
2022/01/15 07:28:08;;;;;;;;;106.00;98.33;;;;;-147.17;100.00;50395.19;5023509;28;51046;-62
2022/01/15 07:30:35;;;;;;;;;112.33;103.00;;;;;-147.17;100.00;50405.03;5020450;28;51133;-62
2022/01/15 07:33:00;;;;;;;;;102.67;97.33;;;;;-147.17;100.00;50434.56;5020406;28;51869;-62
2022/01/15 07:35:26;;;;;;;;;108.67;103.67;;;;;-147.17;100.00;50387.31;5032181;28;51094;-61
2022/01/15 07:37:51;;;;;;;;;110.00;102.67;;;;;-147.17;100.00;50399.13;5029041;28;51173;-61
2022/01/15 07:40:17;;;;;;;;;108.67;99.00;;;;;-147.17;100.00;50424.72;5029978;28;50999;-62
2022/01/15 07:42:42;;;;;;;;;115.00;99.00;;;;;-147.17;100.00;50426.69;5028382;28;51625;-62
2022/01/15 07:45:11;;;;;;;;;101.33;91.33;;;;;-147.17;100.00;50401.09;5031958;28;51194;-62
2022/01/15 07:47:37;;;;;;;;;106.67;91.00;;;;;-147.17;100.00;50383.38;5023440;28;51007;-61
2022/01/15 07:50:08;;;;;;;;;104.67;92.67;;;;;-147.17;100.00;50420.78;5023269;28;51090;-60
2022/01/15 07:52:34;;;;;;;;;116.67;101.00;;;;;-147.17;100.00;50410.94;5016555;28;51891;-61
2022/01/15 07:55:00;;;;;;;;;104.00;91.00;;;;;-147.17;100.00;50446.38;5012833;28;51017;-61
2022/01/15 07:57:26;;;;;;;;;110.00;99.33;;;;;-147.17;100.00;50371.56;5012953;28;51103;-62
2022/01/15 07:59:52;;;;;;;;;110.67;100.33;;;;;-147.17;100.00;50416.84;5029690;28;50885;-62
2022/01/15 08:02:17;;;;;;;;;101.33;90.67;;;;;-147.17;100.00;50412.91;5022233;28;51872;-62
2022/01/15 08:04:43;;;;;;;;;108.67;100.00;;;;;-147.17;100.00;50395.19;5022841;28;51103;-62
2022/01/15 08:07:09;;;;;;;;;116.00;103.67;;;;;-147.17;100.00;50430.63;5025820;28;51202;-61
2022/01/15 08:09:38;;;;;;;;;115.67;104.33;;;;;-147.17;100.00;50414.88;5028417;28;51355;-62
2022/01/15 08:12:04;;;;;;;;;107.00;100.00;;;;;-147.17;100.00;50391.25;5018633;28;52099;-61
2022/01/15 08:14:30;;;;;;;;;107.33;100.33;;;;;-147.17;100.00;50399.13;5031975;28;50995;-61
2022/01/15 08:16:56;;;;;;;;;104.33;93.67;;;;;-147.17;100.00;50403.06;5032423;28;51063;-61
2022/01/15 08:19:21;;;;;;;;;117.00;102.00;;;;;-147.17;100.00;50375.50;5031455;28;50847;-63
2022/01/15 08:21:47;;;;;;;;;119.00;105.67;;;;;-147.17;100.00;50385.34;5020986;28;51763;-60
2022/01/15 08:24:12;;;;;;;;;108.00;103.00;;;;;-147.17;100.00;50430.63;5019104;28;50964;-61
2022/01/15 08:26:38;;;;;;;;;120.67;104.67;;;;;-147.17;100.00;50442.44;5024463;28;51534;-61
2022/01/15 08:29:03;;;;;;;;;99.67;88.33;;;;;-147.17;100.00;50407.00;5026622;28;51339;-62
2022/01/15 08:31:29;;;;;;;;;101.00;93.67;;;;;-147.17;100.00;50403.06;5025566;28;51868;-62
2022/01/15 08:33:55;;;;;;;;;111.67;100.00;;;;;-147.17;100.00;50391.25;5016402;28;51273;-61
2022/01/15 08:36:21;;;;;;;;;112.33;101.67;;;;;-147.17;100.00;50407.00;5021123;28;51043;-61
2022/01/15 08:38:47;;;;;;;;;100.33;91.67;;;;;-147.17;100.00;50383.38;5020825;28;51397;-60
2022/01/15 08:41:14;;;;;;;;;113.33;100.67;;;;;-147.17;100.00;50399.13;5018508;28;51989;-61
2022/01/15 08:43:43;;;;;;;;;107.00;100.00;;;;;-147.17;100.00;50432.59;5022269;28;50938;-61
2022/01/15 08:46:09;;;;;;;;;116.00;105.33;;;;;-147.17;100.00;50434.56;5015282;28;51246;-61
2022/01/15 08:48:35;;;;;;;;;92.00;73.33;;;;;-147.17;100.00;50422.75;5022432;28;51046;-61
2022/01/15 08:51:00;;;;;;;;;105.00;94.67;;;;;-147.17;100.00;50416.84;5017417;28;51101;-61
2022/01/15 08:53:26;;;;;;;;;107.67;99.67;;;;;-147.17;100.00;50405.03;5021214;28;51173;-61
2022/01/15 08:55:53;;;;;;;;;101.00;94.00;;;;;-147.17;100.00;50418.81;5028304;28;51196;-61
2022/01/15 08:58:19;;;;;;;;;100.00;89.67;;;;;-147.17;100.00;50379.44;5025654;28;51037;-61
2022/01/15 09:00:44;;;;;;;;;105.00;96.00;;;;;-147.17;100.00;50416.84;5034206;28;52288;-60
2022/01/15 09:03:11;;;;;;;;;104.67;96.67;;;;;-147.17;100.00;50414.88;5035664;28;51207;-60
2022/01/15 09:05:37;;;;;;;;;103.00;92.33;;;;;-147.17;100.00;50387.31;5035560;28;51730;-60
2022/01/15 09:08:04;;;;;;;;;103.67;94.67;;;;;-147.17;100.00;50401.09;5034995;28;51101;-60
2022/01/15 09:10:30;;;;;;;;;105.33;93.67;;;;;-147.17;100.00;50446.38;5023498;28;53342;-62
2022/01/15 09:12:55;;;;;;;;;105.67;96.00;;;;;-147.17;100.00;50434.56;5024406;28;52665;-62
2022/01/15 09:15:21;;;;;;;;;102.67;95.00;;;;;-147.17;100.00;50446.38;5028597;28;51872;-63
2022/01/15 09:17:47;;;;;;;;;99.33;88.67;;;;;-147.17;100.00;50470.00;5029997;28;51176;-62
2022/01/15 09:20:13;;;;;;;;;110.67;96.67;;;;;-147.17;100.00;50444.41;5027994;28;51201;-62
2022/01/15 09:22:38;;;;;;;;;113.67;100.00;;;;;-147.17;100.00;50420.78;5014243;28;51158;-61
2022/01/15 09:25:04;;;;;;;;;96.67;83.00;;;;;-147.17;100.00;50440.47;5026472;28;51474;-61
2022/01/15 09:30:17;;;;;;;;;101.00;89.67;;;;;-147.17;100.00;50462.13;5019689;28;51225;-62
2022/01/15 09:32:49;;;;;;;;;114.67;100.00;;;;;-147.17;100.00;50454.25;5022165;28;51135;-62
2022/01/15 09:35:16;;;;;;;;;105.00;96.33;;;;;-147.17;100.00;50444.41;5019385;28;51199;-62
2022/01/15 09:37:42;;;;;;;;;111.67;100.33;;;;;-147.17;100.00;50446.38;5018463;28;51170;-62
2022/01/15 09:40:10;;;;;;;;;106.33;102.33;;;;;-147.17;100.00;50450.31;5010609;28;52428;-62
2022/01/15 09:42:41;;;;;;;;;67.33;52.67;;;;;-147.17;100.00;50438.50;5015967;28;51143;-62
2022/01/15 09:45:09;;;;;;;;;116.67;103.00;;;;;-147.17;100.00;50466.06;5014418;28;51295;-61
2022/01/15 09:47:35;;;;;;;;;101.00;96.00;;;;;-147.17;100.00;50493.63;5017440;28;51204;-70
2022/01/15 09:50:22;;;;;;;;;119.00;106.00;;;;;-147.17;100.00;50438.50;5024562;28;51225;-69
2022/01/15 09:52:48;;;;;;;;;114.33;104.00;;;;;-147.17;100.00;50464.09;5006182;28;51144;-73
2022/01/15 09:55:13;;;;;;;;;113.00;103.33;;;;;-147.17;100.00;50462.13;5024001;28;51474;-71
2022/01/15 09:57:40;;;;;;;;;106.33;98.67;;;;;-147.17;100.00;50458.19;5027472;28;50928;-70
2022/01/15 10:00:14;;;;;;;;;124.67;113.00;;;;;-147.17;100.00;50466.06;5018790;28;51114;-66
2022/01/15 10:02:41;;;;;;;;;112.67;102.67;;;;;-147.17;100.00;50477.88;5024114;28;51152;-65
2022/01/15 10:05:07;;;;;;;;;124.67;110.67;;;;;-147.17;100.00;50473.94;5015591;28;52312;-67
2022/01/15 10:07:33;;;;;;;;;109.00;100.00;;;;;-147.17;100.00;50470.00;5031129;28;50953;-67
2022/01/15 10:10:14;;;;;;;;;110.33;104.00;;;;;-147.17;100.00;50470.00;5023665;28;51740;-65
2022/01/15 10:12:42;;;;;;;;;119.00;108.67;;;;;-147.17;100.00;50481.81;5013762;28;50888;-65
2022/01/15 10:15:08;;;;;;;;;117.33;108.00;;;;;-147.17;100.00;50497.56;5020574;28;51246;-65
2022/01/15 10:17:36;;;;;;;;;116.33;107.67;;;;;-147.17;100.00;50473.94;5031417;28;51216;-64
2022/01/15 10:20:08;;;;;;;;;108.33;97.67;;;;;-147.17;100.00;50470.00;5027837;28;51290;-65
2022/01/15 10:22:34;;;;;;;;;123.67;116.00;;;;;-147.17;100.00;50501.50;5016942;28;51161;-68
2022/01/15 10:25:03;;;;;;;;;115.33;109.33;;;;;-147.17;100.00;50489.69;5018088;28;51144;-67
2022/01/15 10:27:32;;;;;;;;;121.00;112.33;;;;;-147.17;100.00;50470.00;5018400;28;52379;-67
2022/01/15 10:30:03;;;;;;;;;113.33;106.67;;;;;-147.17;100.00;50505.44;5023062;28;52215;-67
2022/01/15 10:32:32;;;;;;;;;117.67;105.33;;;;;-147.17;100.00;50505.44;5007654;28;51418;-66
2022/01/15 10:34:58;;;;;;;;;121.67;110.67;;;;;-147.17;100.00;50470.00;5019889;28;51180;-65
2022/01/15 10:37:33;;;;;;;;;120.00;112.67;;;;;-147.17;100.00;50489.69;5032510;28;51003;-66
2022/01/15 10:40:07;;;;;;;;;117.67;105.00;;;;;-147.17;100.00;50505.44;5033010;28;50943;-66
2022/01/15 10:42:34;;;;;;;;;115.67;107.33;;;;;-147.17;100.00;50489.69;5030046;28;51095;-67
2022/01/15 10:45:08;;;;;;;;;115.67;105.00;;;;;-147.17;100.00;50473.94;5013522;28;51099;-68
2022/01/15 10:47:40;;;;;;;;;117.33;104.33;;;;;-147.17;100.00;50507.41;5030276;28;51445;-67
2022/01/15 10:50:06;;;;;;;;;123.33;111.67;;;;;-147.17;100.00;50497.56;5032188;28;51997;-68
2022/01/15 10:52:32;;;;;;;;;113.67;107.33;;;;;-147.17;100.00;50483.78;5022944;28;51094;-68
2022/01/15 10:55:10;;;;;;;;;116.67;110.00;;;;;-147.17;100.00;50471.97;5019833;28;50965;-69
2022/01/15 10:57:45;;;;;;;;;119.33;109.67;;;;;-147.17;100.00;50533.00;5011766;28;51263;-69
2022/01/15 11:00:21;;;;;;;;;117.00;108.00;;;;;-147.17;100.00;50523.16;5020335;28;51904;-68
2022/01/15 11:02:58;;;;;;;;;110.00;105.00;;;;;-147.17;100.00;50513.31;5013416;28;51214;-70
2022/01/15 11:05:38;;;;;;;;;117.67;110.00;;;;;-147.17;100.00;50505.44;5011789;28;51023;-68
2022/01/15 11:08:28;;;;;;;;;115.00;110.00;;;;;-147.17;100.00;50489.69;5013461;28;51329;-67